Latest Weather Observations for Port Hedland

IDW60801

Issued at 5:05 pm WST Saturday 1 November 2014 (issued every 30 minutes, with the page automatically refreshed every 10 minutes)

About weather observations | Map of weather stations | Latest weather observations for WA | Other Formats
Station Details ID: 004032 Name: PORT HEDLAND AIRPORT Lat: -20.37 Lon: 118.63 Height: 6.4 m
Data from the previous 72 hours. | See also: Recent months at Port Hedland
Date/Time
WST
Temp
°C
App
Temp
°C
Dew
Point
Rel
Hum
%
Delta-T
°C
Wind Press
QNH
hPa
Press
MSL
hPa
Rain
since 9 am
mm
Dir
 
Spd
km/h
Gust
km/h
Spd
kts
Gust
kts
01/05:00pm 33.4 27.1 9.6 23 13.6 WNW 33 46 18 25 1006.5 - 0.0
01/04:30pm 34.2 27.7 8.2 20 14.6 NW 32 39 17 21 1006.4 - 0.0
01/04:00pm 35.1 29.7 11.0 23 14.2 NW 30 37 16 20 1006.2 - 0.0
01/03:30pm 36.0 29.3 7.4 17 16.0 NW 32 39 17 21 1006.1 - 0.0
01/03:00pm 36.3 29.7 7.7 17 16.1 NW 32 39 17 21 1006.1 1006.0 0.0
01/02:30pm 36.8 30.7 8.4 17 16.2 NW 30 37 16 20 1006.1 - 0.0
01/02:00pm 38.0 31.5 6.7 14 17.5 NW 30 37 16 20 1006.4 - 0.0
01/01:30pm 38.7 33.1 7.2 14 17.8 NNW 26 35 14 19 1006.7 - 0.0
01/01:00pm 38.7 32.2 2.7 11 19.0 N 26 33 14 18 1006.9 - 0.0
01/12:30pm 39.0 32.8 -0.6 8 19.9 N 22 28 12 15 1007.2 - 0.0
01/12:00pm 37.6 31.4 1.9 11 18.5 N 24 28 13 15 1007.5 1007.4 0.0
01/11:30am 39.4 34.2 3.6 11 19.2 N 20 28 11 15 - - 0.0
01/11:00am 39.9 34.5 1.2 9 20.1 NNE 19 32 10 17 1008.1 - 0.0
01/10:30am 39.9 33.5 -12.4 3 22.1 SSW 17 24 9 13 1008.4 - 0.0
01/10:00am 39.8 35.0 -10.0 4 21.8 SSE 9 26 5 14 1008.8 - 0.0
01/09:30am 38.1 33.9 -4.3 6 20.0 SE 9 15 5 8 1009.0 - 0.0
01/09:00am 37.1 32.1 -4.4 7 19.4 SE 13 19 7 10 1009.2 1009.1 0.0
01/08:30am 35.7 30.4 -3.4 8 18.4 SSE 15 24 8 13 1009.4 - 0.0
01/08:00am 32.4 27.8 -0.7 12 15.9 S 13 20 7 11 1009.3 - 0.0
01/07:30am 29.2 26.6 7.9 26 11.6 S 11 17 6 9 1009.3 - 0.0
01/07:00am 27.2 25.4 12.2 39 8.7 SW 13 17 7 9 1008.9 - 0.0
01/06:30am 24.3 24.9 16.7 62 4.7 SSW 9 11 5 6 1008.7 - 0.0
01/06:00am 22.2 23.8 19.9 87 1.5 SW 11 13 6 7 1008.4 1008.3 0.0
01/05:30am 22.0 23.3 20.9 93 0.7 WSW 15 17 8 9 1008.2 - 0.0
01/05:00am 22.0 23.5 21.2 95 0.5 WSW 15 17 8 9 1008.0 - 0.0
01/04:30am 22.4 23.5 21.3 93 0.7 WSW 17 20 9 11 1007.7 - 0.0
01/04:00am 22.9 24.3 21.8 93 0.7 W 17 20 9 11 1007.5 - 0.0
01/03:30am 23.3 24.9 22.1 93 0.8 W 17 19 9 10 1007.5 - 0.0
01/03:00am 23.5 25.5 22.3 93 0.8 W 15 19 8 10 1007.4 1007.3 0.0
01/02:30am 23.9 26.4 22.4 91 1.0 W 13 15 7 8 1007.5 - 0.0
01/02:00am 24.8 26.6 22.6 87 1.5 W 17 19 9 10 1007.5 - 0.0
01/01:30am 24.4 26.7 22.0 86 1.6 W 13 17 7 9 1007.5 - 0.0
01/01:00am 23.9 25.4 20.5 81 2.2 W 13 15 7 8 1007.5 - 0.0
01/12:30am 24.8 25.8 20.2 75 3.0 W 15 17 8 9 1007.9 - 0.0
01/12:00am 24.8 25.4 20.2 75 3.0 W 17 19 9 10 1008.2 1008.1 0.0
 
Date/Time
WST
Temp
°C
App
Temp
°C
Dew
Point
Rel
Hum
%
Delta-T
°C
Wind Press
QNH
hPa
Press
MSL
hPa
Rain
since 9 am
mm
Dir
 
Spd
km/h
Gust
km/h
Spd
kts
Gust
kts
31/11:30pm 25.2 25.9 20.5 75 3.1 W 17 19 9 10 1008.3 - 0.0
31/11:00pm 25.7 27.3 20.7 74 3.3 W 13 17 7 9 1008.7 - 0.0
31/10:30pm 26.4 27.7 20.8 71 3.7 W 15 17 8 9 1009.0 - 0.0
31/10:00pm 27.0 28.0 21.1 70 3.9 W 17 20 9 11 1009.1 - 0.0
31/09:30pm 27.5 28.4 21.5 70 4.0 W 19 22 10 12 1009.1 - 0.0
31/09:00pm 27.9 28.9 21.8 69 4.1 W 19 22 10 12 1009.0 1009.0 0.0
31/08:30pm 28.0 28.9 21.9 69 4.1 W 20 24 11 13 1008.7 - 0.0
31/08:00pm 28.1 29.5 21.9 69 4.2 W 17 20 9 11 1008.5 - 0.0
31/07:30pm 28.1 29.4 22.3 70 3.9 WNW 19 24 10 13 1008.2 - 0.0
31/07:00pm 28.2 29.3 22.4 71 3.9 WNW 20 26 11 14 1007.8 - 0.0
31/06:30pm 28.3 29.0 22.2 69 4.1 WNW 22 28 12 15 1007.5 - 0.0
31/06:00pm 28.9 28.6 21.8 65 4.8 WNW 26 33 14 18 1007.3 1007.3 0.0
31/05:30pm 29.9 29.3 21.2 59 5.8 WNW 26 33 14 18 1007.0 - 0.0
31/05:00pm 30.8 29.6 20.8 55 6.7 WNW 28 35 15 19 1006.7 - 0.0
31/04:30pm 32.4 29.1 18.4 43 9.1 WNW 33 39 18 21 1006.6 - 0.0
31/04:00pm 34.4 29.2 14.5 30 12.3 WNW 35 43 19 23 1006.5 - 0.0
31/03:30pm 35.2 28.6 11.4 23 14.1 WNW 37 46 20 25 1006.5 - 0.0
31/03:00pm 35.2 28.5 12.4 25 13.7 WNW 39 50 21 27 1006.6 1006.6 0.0
31/02:30pm 36.4 31.9 15.5 29 13.2 NW 33 43 18 23 1006.4 - 0.0
31/02:00pm 35.0 31.8 17.3 35 11.4 NW 30 39 16 21 1006.7 - 0.0
31/01:30pm 34.6 31.5 17.4 36 11.1 NW 30 35 16 19 1007.2 - 0.0
31/01:00pm 35.4 31.8 16.2 32 12.2 NW 30 37 16 20 1007.4 - 0.0
31/12:30pm 36.2 32.9 14.0 26 13.7 NW 24 32 13 17 1007.8 - 0.0
31/12:00pm 36.3 34.3 17.3 32 12.3 NW 24 30 13 16 1008.1 1008.1 0.0
31/11:47am 35.8 33.3 17.2 33 12.0 NW 26 35 14 19 1008.2 - 0.0
31/11:30am 41.0 33.5 -1.4 7 21.3 SW 28 39 15 21 1008.3 - 0.0
31/11:00am 41.6 34.4 -2.0 6 21.7 WSW 26 35 14 19 1008.5 - 0.0
31/10:30am 39.3 32.7 -0.7 8 20.1 S 24 32 13 17 1008.8 - 0.0
31/10:00am 39.7 32.6 -1.5 7 20.5 SW 26 37 14 20 1009.2 - 0.0
31/09:30am 38.9 30.6 -2.0 7 20.1 SW 32 43 17 23 1009.4 - 0.0
31/09:00am 38.5 31.5 -0.2 9 19.5 SSW 26 33 14 18 1009.5 1009.5 0.0
31/08:30am 37.4 31.7 0.8 10 18.6 SSW 20 26 11 14 1009.6 - 0.0
31/08:00am 35.8 31.7 4.2 14 16.8 S 15 19 8 10 1009.6 - 0.0
31/07:30am 33.5 29.2 5.2 17 15.1 SSW 17 20 9 11 1009.4 - 0.0
31/07:00am 30.5 26.6 7.3 23 12.6 SW 17 22 9 12 1009.1 - 0.0
31/06:30am 26.1 25.0 10.8 38 8.6 SW 7 11 4 6 1009.1 - 0.0
31/06:00am 24.3 22.9 10.9 43 7.5 SSW 9 11 5 6 1008.8 1008.8 0.0
31/05:30am 23.0 21.5 11.8 49 6.3 WSW 11 13 6 7 1008.2 - 0.0
31/05:00am 23.1 21.4 12.4 51 6.1 WSW 13 15 7 8 1007.9 - 0.0
31/04:30am 23.1 21.3 13.3 54 5.7 WSW 15 15 8 8 1007.4 - 0.0
31/04:00am 23.5 22.4 14.2 56 5.5 W 13 15 7 8 1007.2 - 0.0
31/03:30am 23.7 22.3 14.6 56 5.4 W 15 15 8 8 1007.0 - 0.0
31/03:00am 24.2 23.4 15.2 57 5.4 WSW 13 15 7 8 1006.9 1006.9 0.0
31/02:30am 25.0 23.9 15.4 55 5.8 WSW 15 19 8 10 1006.8 - 0.0
31/02:00am 25.5 24.2 15.8 55 5.9 WSW 17 19 9 10 1006.8 - 0.0
31/01:30am 26.3 25.1 16.0 53 6.3 WSW 17 19 9 10 1007.0 - 0.0
31/01:00am 26.7 25.8 16.9 55 6.1 WSW 17 19 9 10 1007.2 - 0.0
31/12:30am 27.3 26.8 17.8 56 6.0 WSW 17 19 9 10 1007.4 - 0.0
31/12:00am 27.5 27.3 18.4 57 5.8 WSW 17 20 9 11 1007.5 1007.5 0.0
 
Date/Time
WST
Temp
°C
App
Temp
°C
Dew
Point
Rel
Hum
%
Delta-T
°C
Wind Press
QNH
hPa
Press
MSL
hPa
Rain
since 9 am
mm
Dir
 
Spd
km/h
Gust
km/h
Spd
kts
Gust
kts
30/11:30pm 27.9 27.3 18.5 56 6.0 W 19 20 10 11 1007.9 - 0.0
30/11:00pm 28.6 28.0 18.5 54 6.5 W 19 22 10 12 1008.1 - 0.0
30/10:30pm 28.6 27.8 18.5 54 6.5 W 20 24 11 13 1008.2 - 0.0
30/10:00pm 28.8 28.0 18.5 53 6.6 W 20 26 11 14 1008.5 - 0.0
30/09:30pm 29.4 27.7 18.2 51 7.2 W 24 30 13 16 1008.4 - 0.0
30/09:00pm 29.4 27.9 17.8 49 7.4 W 22 30 12 16 1008.3 1008.3 0.0
30/08:30pm 29.9 28.0 17.7 48 7.8 W 24 33 13 18 1008.2 - 0.0
30/08:00pm 29.8 28.4 17.1 46 8.0 W 20 26 11 14 1008.2 - 0.0
30/07:30pm 30.3 27.5 15.4 40 9.2 W 24 33 13 18 1007.9 - 0.0
30/07:00pm 30.6 27.4 15.4 39 9.4 W 26 37 14 20 1007.6 - 0.0
30/06:30pm 31.4 27.9 14.4 35 10.4 W 26 37 14 20 1007.4 - 0.0
30/06:00pm 32.4 27.7 13.1 31 11.6 WNW 30 39 16 21 1007.1 1007.1 0.0
30/05:30pm 33.6 29.3 13.3 29 12.3 WNW 28 35 15 19 1006.9 - 0.0
30/05:00pm 33.8 29.3 15.4 33 11.5 WNW 33 44 18 24 1006.6 - 0.0
30/04:30pm 34.2 29.6 16.2 34 11.4 WNW 35 44 19 24 1006.3 - 0.0
30/04:00pm 36.8 31.8 13.3 24 14.4 WNW 32 39 17 21 1006.3 - 0.0
30/03:30pm 37.2 31.4 11.4 21 15.4 NW 33 39 18 21 1006.2 - 0.0
30/03:00pm 38.2 32.6 10.2 18 16.5 WNW 30 37 16 20 1006.4 1006.4 0.0
30/02:30pm 39.1 34.3 12.9 21 16.1 NW 30 39 16 21 1006.6 - 0.0
30/02:00pm 38.4 32.8 12.2 21 15.9 NW 33 39 18 21 1006.8 - 0.0
30/01:30pm 37.3 32.6 14.8 26 14.1 NW 33 39 18 21 1007.2 - 0.0
30/01:00pm 38.1 33.9 13.5 23 15.2 NW 28 35 15 19 1007.3 - 0.0
30/12:30pm 39.8 34.8 12.3 19 16.8 NNW 30 39 16 21 1007.4 - 0.0
30/12:00pm 41.4 36.0 2.3 9 20.8 W 20 35 11 19 1008.0 1008.0 0.0
30/11:30am 42.0 36.9 0.9 8 21.5 SSW 17 24 9 13 1008.3 - 0.0
30/11:00am 41.5 35.9 1.2 8 21.1 WSW 20 30 11 16 1008.8 - 0.0
30/10:30am 41.1 35.1 1.0 8 20.9 WSW 22 32 12 17 1009.1 - 0.0
30/10:00am 39.8 33.6 2.2 10 19.8 SSW 24 33 13 18 1009.8 - 0.0
30/09:30am 39.1 34.6 6.3 13 18.3 SSE 19 26 10 14 1010.1 - 0.0
30/09:00am 37.9 34.5 9.3 17 16.6 S 17 26 9 14 1010.4 1010.4 0.0
30/08:30am 35.3 33.1 10.7 22 14.4 SSW 13 19 7 10 1010.4 - 0.0
30/08:00am 32.2 31.4 13.9 33 11.1 SSW 11 15 6 8 1010.5 - 0.0
30/07:30am 28.8 28.9 16.6 47 7.6 SW 11 13 6 7 1010.5 - 0.0
30/07:00am 26.2 27.5 17.6 59 5.4 WSW 7 11 4 6 1010.4 - 0.0
30/06:30am 23.9 26.9 21.2 85 1.8 S 7 9 4 5 1010.2 - 0.0
30/06:00am 22.4 25.3 20.7 90 1.1 S 6 9 3 5 1009.9 1009.9 0.0
30/05:30am 22.0 23.9 20.6 92 0.9 SW 11 11 6 6 1009.6 - 0.0
30/05:00am 22.5 25.0 21.0 91 1.0 SW 9 11 5 6 1009.3 - 0.0
30/04:30am 23.0 25.3 21.3 90 1.1 WSW 11 13 6 7 1009.1 - 0.0
30/04:00am 23.2 25.4 21.2 88 1.3 WSW 11 13 6 7 1009.0 - 0.0
30/03:30am 23.3 26.0 21.3 88 1.3 W 9 11 5 6 1008.9 - 0.0
30/03:00am 22.7 25.4 20.7 88 1.3 W 7 7 4 4 1008.8 1008.8 0.0
30/02:30am 22.5 25.0 21.0 91 1.0 W 9 11 5 6 1008.7 - 0.0
30/02:00am 22.7 25.0 20.7 88 1.3 W 9 11 5 6 1008.9 - 0.0
30/01:30am 23.6 26.2 21.2 86 1.6 W 9 11 5 6 1008.9 - 0.0
30/01:00am 23.4 26.1 21.4 88 1.3 W 9 11 5 6 1009.2 - 0.0
30/12:30am 23.7 26.1 21.6 88 1.4 W 11 13 6 7 1009.5 - 0.0
30/12:00am 24.1 26.7 22.0 88 1.4 WNW 11 13 6 7 1009.7 1009.7 0.0
 
Date/Time
WST
Temp
°C
App
Temp
°C
Dew
Point
Rel
Hum
%
Delta-T
°C
Wind Press
QNH
hPa
Press
MSL
hPa
Rain
since 9 am
mm
Dir
 
Spd
km/h
Gust
km/h
Spd
kts
Gust
kts
29/11:30pm 24.4 27.2 22.3 88 1.4 W 11 15 6 8 1010.0 - 0.0
29/11:00pm 24.5 27.4 22.4 88 1.4 W 11 13 6 7 1010.2 - 0.0
29/10:30pm 24.3 26.8 22.4 89 1.3 WNW 13 17 7 9 1010.6 - 0.0
29/10:00pm 24.4 27.3 22.5 89 1.3 NW 11 13 6 7 1010.8 - 0.0
29/09:30pm 24.8 27.8 22.7 88 1.4 NW 11 13 6 7 1011.0 - 0.0
29/09:00pm 25.2 28.0 23.0 87 1.5 NW 13 15 7 8 1010.8 1010.8 0.0
29/08:30pm 25.9 28.3 23.0 84 2.0 WNW 15 19 8 10 1010.6 - 0.0
29/08:00pm 26.0 28.3 23.4 85 1.8 WNW 17 20 9 11 1010.6 - 0.0
29/07:30pm 26.1 29.4 23.8 87 1.6 NW 13 17 7 9 1010.4 - 0.0
29/07:00pm 26.5 29.1 23.9 85 1.8 NW 17 20 9 11 1010.2 - 0.0
29/06:30pm 26.9 29.0 23.8 83 2.1 NW 19 22 10 12 1009.9 - 0.0
29/06:00pm 27.6 29.2 23.2 77 3.0 NW 20 26 11 14 1009.6 1009.6 0.0
29/05:30pm 28.7 29.7 22.2 68 4.4 NW 20 28 11 15 1009.4 - 0.0

Other Formats:

Comma delimited format used in spreadsheet applications
http://www.bom.gov.au/fwo/IDW60801/IDW60801.94312.axf

JavaScript Object Notation format (JSON) in row-major order
http://www.bom.gov.au/fwo/IDW60801/IDW60801.94312.json